createdAt,value
2019-04-05T00:02:02.373Z,1.50
2019-04-05T00:04:30.799Z,1.50
2019-04-05T00:06:59.220Z,1.40
2019-04-05T00:09:27.710Z,1.40
2019-04-05T00:11:56.122Z,1.50
2019-04-05T00:14:24.521Z,1.30
2019-04-05T00:16:52.946Z,1.30
2019-04-05T00:19:21.340Z,1.20
2019-04-05T00:21:49.783Z,1.10
2019-04-05T00:24:18.189Z,1.20
2019-04-05T00:26:46.597Z,1.20
2019-04-05T00:29:15.031Z,1.10
2019-04-05T00:31:43.463Z,1.10
2019-04-05T00:34:11.875Z,1.00
2019-04-05T00:36:40.290Z,1.00
2019-04-05T00:39:09.371Z,1.00
2019-04-05T00:41:38.426Z,1.00
2019-04-05T00:44:06.837Z,1.00
2019-04-05T00:46:35.331Z,1.00
2019-04-05T00:49:03.757Z,1.00
2019-04-05T00:51:32.183Z,1.10
2019-04-05T00:54:00.775Z,1.10
2019-04-05T00:56:29.169Z,1.10
2019-04-05T00:58:57.723Z,1.20
2019-04-05T01:01:26.239Z,1.30
2019-04-05T01:03:54.698Z,1.30
2019-04-05T01:06:23.250Z,1.30
2019-04-05T01:08:51.768Z,1.30
2019-04-05T01:11:20.193Z,1.40
2019-04-05T01:13:49.581Z,1.50
2019-04-05T01:16:18.043Z,1.50
2019-04-05T01:18:46.453Z,1.60
2019-04-05T01:21:17.952Z,1.60
2019-04-05T01:23:46.575Z,1.50
2019-04-05T01:26:16.633Z,1.60
2019-04-05T01:28:45.046Z,1.60
2019-04-05T01:31:13.465Z,1.70
2019-04-05T01:33:41.863Z,1.70
2019-04-05T01:36:10.280Z,1.70
2019-04-05T01:38:38.698Z,1.80
2019-04-05T01:41:07.440Z,1.80
2019-04-05T01:43:35.989Z,1.80
2019-04-05T01:46:04.702Z,1.80
2019-04-05T01:48:33.135Z,1.80
2019-04-05T01:51:01.568Z,1.80
2019-04-05T01:53:30.049Z,1.90
2019-04-05T01:55:58.457Z,2.00
2019-04-05T01:58:26.912Z,2.00
2019-04-05T02:00:55.394Z,2.00
2019-04-05T02:03:23.882Z,2.00
2019-04-05T02:05:52.460Z,2.00
2019-04-05T02:08:21.004Z,2.00
2019-04-05T02:10:49.482Z,2.00
2019-04-05T02:13:17.899Z,2.10
2019-04-05T02:15:46.469Z,2.10
2019-04-05T02:18:15.002Z,2.10
2019-04-05T02:20:43.453Z,2.20
2019-04-05T02:23:11.847Z,2.30
2019-04-05T02:25:40.370Z,2.20
2019-04-05T02:28:08.778Z,2.20
2019-04-05T02:30:37.267Z,2.20
2019-04-05T02:33:05.704Z,2.20
2019-04-05T02:35:34.328Z,2.20
2019-04-05T02:38:02.726Z,2.20
2019-04-05T02:40:33.249Z,2.20
2019-04-05T02:43:03.806Z,2.20
2019-04-05T02:45:34.126Z,2.20
2019-04-05T02:48:05.610Z,2.20
2019-04-05T02:50:36.534Z,2.20
2019-04-05T02:53:07.559Z,2.20
2019-04-05T02:55:37.145Z,2.20
2019-04-05T02:58:06.278Z,2.20
2019-04-05T03:00:35.045Z,2.20
2019-04-05T03:03:04.911Z,2.30
2019-04-05T03:05:33.905Z,2.40
2019-04-05T03:08:02.518Z,2.50
2019-04-05T03:10:56.500Z,2.40
2019-04-05T03:13:26.395Z,2.40
2019-04-05T03:15:57.971Z,2.50
2019-04-05T03:18:28.929Z,2.50
2019-04-05T03:21:00.422Z,2.40
2019-04-05T03:23:31.818Z,2.50
2019-04-05T03:26:03.338Z,2.50
2019-04-05T03:28:34.923Z,2.50
2019-04-05T03:31:03.406Z,2.50
2019-04-05T03:33:32.679Z,2.40
2019-04-05T03:36:01.853Z,2.50
2019-04-05T03:38:31.579Z,2.60
2019-04-05T03:41:00.525Z,2.50
2019-04-05T03:43:29.279Z,2.50
2019-04-05T03:45:57.770Z,2.50
2019-04-05T03:48:26.600Z,2.50
2019-04-05T03:50:55.378Z,2.60
2019-04-05T03:53:24.456Z,2.50
2019-04-05T03:55:53.005Z,2.40
2019-04-05T03:58:21.511Z,2.40
2019-04-05T04:00:50.216Z,2.40
2019-04-05T04:03:18.779Z,2.40
2019-04-05T04:05:47.355Z,2.40
2019-04-05T04:08:15.895Z,2.50
2019-04-05T04:10:45.339Z,2.40
2019-04-05T04:13:13.906Z,2.50
2019-04-05T04:15:42.364Z,2.50
2019-04-05T04:18:10.963Z,2.60
2019-04-05T04:20:42.346Z,2.60
2019-04-05T04:23:11.845Z,2.70
2019-04-05T04:25:40.717Z,2.60
2019-04-05T04:28:10.058Z,2.60
2019-04-05T04:30:38.768Z,2.60
2019-04-05T04:33:07.445Z,2.60
2019-04-05T04:35:36.150Z,2.60
2019-04-05T04:38:06.099Z,2.60
2019-04-05T04:40:34.817Z,2.50
2019-04-05T04:43:03.383Z,2.60
2019-04-05T04:45:33.450Z,2.60
2019-04-05T04:48:02.699Z,2.60
2019-04-05T04:50:31.673Z,2.60
2019-04-05T04:53:00.645Z,2.60
2019-04-05T04:55:29.208Z,2.60
2019-04-05T04:57:58.177Z,2.70
2019-04-05T05:00:27.636Z,2.60
2019-04-05T05:02:56.173Z,2.60
2019-04-05T05:05:24.732Z,2.60
2019-04-05T05:07:53.281Z,2.60
2019-04-05T05:10:22.160Z,2.70
2019-04-05T05:12:50.696Z,2.70
2019-04-05T05:15:20.334Z,2.70
2019-04-05T05:17:58.652Z,2.70
2019-04-05T05:20:19.611Z,2.60
2019-04-05T05:22:48.107Z,2.60
2019-04-05T05:25:16.850Z,2.70
2019-04-05T05:27:45.993Z,2.60
2019-04-05T05:30:15.554Z,2.50
2019-04-05T05:32:44.247Z,2.50
2019-04-05T05:35:12.800Z,2.40
2019-04-05T05:37:41.398Z,2.50
2019-04-05T05:40:10.446Z,2.40
2019-04-05T05:42:38.879Z,2.40
2019-04-05T05:45:08.019Z,2.40
2019-04-05T05:47:36.425Z,2.40
2019-04-05T05:50:06.970Z,2.40
2019-04-05T05:52:36.347Z,2.50
2019-04-05T05:55:05.901Z,2.50
2019-04-05T05:57:34.347Z,2.50
2019-04-05T06:00:04.570Z,2.50
2019-04-05T06:02:32.973Z,2.50
2019-04-05T06:05:01.409Z,2.50
2019-04-05T06:07:29.892Z,2.50
2019-04-05T06:09:58.335Z,2.50
2019-04-05T06:12:26.921Z,2.50
2019-04-05T06:14:55.337Z,2.60
2019-04-05T06:17:23.764Z,2.60
2019-04-05T06:19:52.241Z,2.70
2019-04-05T06:22:20.688Z,2.80
2019-04-05T06:24:49.089Z,2.80
2019-04-05T06:27:17.508Z,2.90
2019-04-05T06:29:45.948Z,3.10
2019-04-05T06:32:14.527Z,3.20
2019-04-05T06:34:42.968Z,3.40
2019-04-05T06:37:11.403Z,3.40
2019-04-05T06:39:39.860Z,3.50
2019-04-05T06:42:08.285Z,3.60
2019-04-05T06:44:36.697Z,3.60
2019-04-05T06:47:05.118Z,3.70
2019-04-05T06:49:33.546Z,3.80
2019-04-05T06:52:01.932Z,3.90
2019-04-05T06:54:30.390Z,4.00
2019-04-05T06:56:58.807Z,4.00
2019-04-05T06:59:27.220Z,4.10
2019-04-05T07:01:55.622Z,3.60
2019-04-05T07:04:24.129Z,3.40
2019-04-05T07:06:52.553Z,3.50
2019-04-05T07:09:20.992Z,3.50
2019-04-05T07:11:49.404Z,3.70
2019-04-05T07:14:17.826Z,4.00
2019-04-05T07:16:47.822Z,4.10
2019-04-05T07:19:16.334Z,4.20
2019-04-05T07:21:44.747Z,4.30
2019-04-05T07:24:13.246Z,4.60
2019-04-05T07:26:41.650Z,4.70
2019-04-05T07:29:10.081Z,4.90
2019-04-05T07:31:38.483Z,5.00
2019-04-05T07:34:06.925Z,4.90
2019-04-05T07:36:35.336Z,5.00
2019-04-05T07:39:06.215Z,5.10
2019-04-05T07:41:34.618Z,5.00
2019-04-05T07:44:03.054Z,5.00
2019-04-05T07:46:31.464Z,5.00
2019-04-05T07:48:59.856Z,4.80
2019-04-05T07:51:28.345Z,4.80
2019-04-05T07:53:56.753Z,4.80
2019-04-05T07:56:25.343Z,4.70
2019-04-05T07:58:53.736Z,4.60
2019-04-05T08:01:22.182Z,4.60
2019-04-05T08:03:50.595Z,4.90
2019-04-05T08:06:19.101Z,5.00
2019-04-05T08:08:56.735Z,5.30
2019-04-05T08:11:27.475Z,5.60
2019-04-05T08:13:57.995Z,5.60
2019-04-05T08:16:26.518Z,5.70
2019-04-05T08:18:58.180Z,5.70
2019-04-05T08:21:25.063Z,5.30
2019-04-05T08:23:53.480Z,5.50
2019-04-05T08:26:21.987Z,5.70
2019-04-05T08:28:50.476Z,5.40
2019-04-05T08:31:18.907Z,5.50
2019-04-05T08:33:47.324Z,5.60
2019-04-05T08:36:15.747Z,5.60
2019-04-05T08:38:44.187Z,6.00
2019-04-05T08:41:12.608Z,6.20
2019-04-05T08:43:41.080Z,6.30
2019-04-05T08:46:09.581Z,6.00
2019-04-05T08:48:38.065Z,6.00
2019-04-05T08:51:06.517Z,6.00
2019-04-05T08:53:34.938Z,6.40
2019-04-05T08:56:03.348Z,6.60
2019-04-05T08:58:33.666Z,6.50
2019-04-05T09:01:01.929Z,6.50
2019-04-05T09:03:30.349Z,6.40
2019-04-05T09:05:58.769Z,6.60
2019-04-05T09:08:27.198Z,6.60
2019-04-05T09:10:55.638Z,6.70
2019-04-05T09:13:24.052Z,6.90
2019-04-05T09:15:52.540Z,6.60
2019-04-05T09:18:20.979Z,6.60
2019-04-05T09:20:49.403Z,6.70
2019-04-05T09:23:17.835Z,6.90
2019-04-05T09:25:46.274Z,7.00
2019-04-05T09:28:14.707Z,7.20
2019-04-05T09:30:43.191Z,7.20
2019-04-05T09:33:11.609Z,7.20
2019-04-05T09:35:40.077Z,7.30
2019-04-05T09:38:08.606Z,7.20
2019-04-05T09:40:37.337Z,6.90
2019-04-05T09:43:05.758Z,6.60
2019-04-05T09:45:34.169Z,6.60
2019-04-05T09:48:02.616Z,6.70
2019-04-05T09:50:31.035Z,6.90
2019-04-05T09:52:59.428Z,7.10
2019-04-05T09:55:27.883Z,7.10
2019-04-05T09:57:56.661Z,6.90
2019-04-05T10:00:27.002Z,6.90
2019-04-05T10:02:55.423Z,7.00
2019-04-05T10:05:23.919Z,7.10
2019-04-05T10:07:55.089Z,7.20
2019-04-05T10:10:22.622Z,7.40
2019-04-05T10:12:51.036Z,7.40
2019-04-05T10:15:21.899Z,7.40
2019-04-05T10:17:50.602Z,7.50
2019-04-05T10:20:19.429Z,7.70
2019-04-05T10:22:47.842Z,7.90
2019-04-05T10:25:16.299Z,8.00
2019-04-05T10:27:44.704Z,8.20
2019-04-05T10:30:13.944Z,7.90
2019-04-05T10:32:42.371Z,7.60
2019-04-05T10:35:10.849Z,7.80
2019-04-05T10:37:39.277Z,7.70
2019-04-05T10:40:08.527Z,7.60
2019-04-05T10:42:38.023Z,7.80
2019-04-05T10:45:08.791Z,7.70
2019-04-05T10:47:37.255Z,7.80
2019-04-05T10:50:08.608Z,7.90
2019-04-05T10:52:37.152Z,7.90
2019-04-05T10:55:06.427Z,7.80
2019-04-05T10:57:34.898Z,8.10
2019-04-05T11:00:05.106Z,7.90
2019-04-05T11:02:33.574Z,7.60
2019-04-05T11:05:02.016Z,7.60
2019-04-05T11:07:30.523Z,7.40
2019-04-05T11:09:59.004Z,7.50
2019-04-05T11:12:27.438Z,7.40
2019-04-05T11:14:55.895Z,7.30
2019-04-05T11:17:24.369Z,7.10
2019-04-05T11:19:52.776Z,7.40
2019-04-05T11:22:21.215Z,7.10
2019-04-05T11:24:49.689Z,7.00
2019-04-05T11:27:18.174Z,7.20
2019-04-05T11:29:46.597Z,7.40
2019-04-05T11:32:15.027Z,7.50
2019-04-05T11:34:43.499Z,7.70
2019-04-05T11:37:12.171Z,7.70
2019-04-05T11:39:41.032Z,7.60
2019-04-05T11:42:09.528Z,7.80
2019-04-05T11:44:40.137Z,7.80
2019-04-05T11:47:08.580Z,7.90
2019-04-05T11:49:37.425Z,7.90
2019-04-05T11:52:05.924Z,8.00
2019-04-05T11:54:34.343Z,7.90
2019-04-05T11:57:02.785Z,7.90
2019-04-05T11:59:31.338Z,8.00
2019-04-05T12:02:01.397Z,8.00
2019-04-05T12:04:30.317Z,8.00
2019-04-05T12:07:18.070Z,7.50
2019-04-05T12:09:48.002Z,7.60
2019-04-05T12:12:16.663Z,7.80
2019-04-05T12:14:45.111Z,8.10
2019-04-05T12:17:13.510Z,8.40
2019-04-05T12:19:41.945Z,8.60
2019-04-05T12:22:10.346Z,8.70
2019-04-05T12:24:38.781Z,8.20
2019-04-05T12:27:07.291Z,8.30
2019-04-05T12:29:35.758Z,8.40
2019-04-05T12:32:04.156Z,8.30
2019-04-05T12:34:32.573Z,8.40
2019-04-05T12:37:00.996Z,8.10
2019-04-05T12:39:29.487Z,8.20
2019-04-05T12:41:57.907Z,8.30
2019-04-05T12:44:28.347Z,8.30
2019-04-05T12:46:56.764Z,8.40
2019-04-05T12:49:25.171Z,8.70
2019-04-05T12:51:53.704Z,8.80
2019-04-05T12:54:22.115Z,8.90
2019-04-05T12:56:50.534Z,8.60
2019-04-05T12:59:18.974Z,8.30
2019-04-05T13:01:47.368Z,8.20
2019-04-05T13:04:15.796Z,8.50
2019-04-05T13:06:44.201Z,8.20
2019-04-05T13:09:13.702Z,8.10
2019-04-05T13:11:42.266Z,8.10
2019-04-05T13:14:10.689Z,8.20
2019-04-05T13:16:39.143Z,8.20
2019-04-05T13:19:07.627Z,8.50
2019-04-05T13:21:36.024Z,8.60
2019-04-05T13:24:06.910Z,8.80
2019-04-05T13:26:36.769Z,9.00
2019-04-05T13:29:04.966Z,9.10
2019-04-05T13:31:33.441Z,8.90
2019-04-05T13:34:01.879Z,8.90
2019-04-05T13:36:30.351Z,8.70
2019-04-05T13:39:00.445Z,8.90
2019-04-05T13:41:31.428Z,9.40
2019-04-05T13:44:01.362Z,9.50
2019-04-05T13:46:29.357Z,9.70
2019-04-05T13:48:57.795Z,9.60
2019-04-05T13:51:28.556Z,9.70
2019-04-05T13:53:56.366Z,9.60
2019-04-05T13:56:24.766Z,9.60
2019-04-05T13:58:53.197Z,9.30
2019-04-05T14:01:21.677Z,9.70
2019-04-05T14:03:50.247Z,9.90
2019-04-05T14:06:19.204Z,10.00
2019-04-05T14:08:47.730Z,10.10
2019-04-05T14:11:16.146Z,10.10
2019-04-05T14:13:44.574Z,10.00
2019-04-05T14:16:13.206Z,9.80
2019-04-05T14:18:45.717Z,9.90
2019-04-05T14:21:12.057Z,9.80
2019-04-05T14:23:40.461Z,9.70
2019-04-05T14:26:08.901Z,9.60
2019-04-05T14:28:37.305Z,9.60
2019-04-05T14:31:05.742Z,9.60
2019-04-05T14:33:34.154Z,9.70
2019-04-05T14:36:02.570Z,9.70
2019-04-05T14:38:31.450Z,9.60
2019-04-05T14:41:00.110Z,9.60
2019-04-05T14:43:28.584Z,9.80
2019-04-05T14:45:58.940Z,9.70
2019-04-05T14:48:28.028Z,9.60
2019-04-05T14:50:57.777Z,9.60
2019-04-05T14:53:31.919Z,9.40
2019-04-05T14:55:59.275Z,9.40
2019-04-05T14:58:28.115Z,9.40
2019-04-05T15:00:56.522Z,9.30
2019-04-05T15:03:24.956Z,9.40
2019-04-05T15:05:53.448Z,9.60
2019-04-05T15:08:21.877Z,9.60
2019-04-05T15:10:51.422Z,9.70
2019-04-05T15:13:22.304Z,9.60
2019-04-05T15:15:50.773Z,9.30
2019-04-05T15:18:19.704Z,9.40
2019-04-05T15:20:48.318Z,9.30
2019-04-05T15:23:16.812Z,9.40
2019-04-05T15:25:45.407Z,9.50
2019-04-05T15:28:14.834Z,9.60
2019-04-05T15:30:43.784Z,9.80
2019-04-05T15:33:12.205Z,9.90
2019-04-05T15:35:40.639Z,9.70
2019-04-05T15:38:09.047Z,9.70
2019-04-05T15:40:37.470Z,9.80
2019-04-05T15:43:06.034Z,9.90
2019-04-05T15:45:34.448Z,10.10
2019-04-05T15:48:03.170Z,9.90
2019-04-05T15:50:31.834Z,9.80
2019-04-05T15:53:02.328Z,9.80
2019-04-05T15:55:33.408Z,9.90
2019-04-05T15:58:01.456Z,9.80
2019-04-05T16:00:44.411Z,9.90
2019-04-05T16:03:13.961Z,9.70
2019-04-05T16:05:43.526Z,9.50
2019-04-05T16:08:12.109Z,9.40
2019-04-05T16:10:40.523Z,9.30
2019-04-05T16:13:09.003Z,9.20
2019-04-05T16:15:37.454Z,9.20
2019-04-05T16:18:05.844Z,9.30
2019-04-05T16:20:34.266Z,9.40
2019-04-05T16:23:02.689Z,9.30
2019-04-05T16:25:31.173Z,9.40
2019-04-05T16:27:59.568Z,9.30
2019-04-05T16:30:28.104Z,9.20
2019-04-05T16:32:56.488Z,9.00
2019-04-05T16:35:24.885Z,8.90
2019-04-05T16:37:53.296Z,9.00
2019-04-05T16:40:21.963Z,9.00
2019-04-05T16:43:01.888Z,9.00
2019-04-05T16:45:21.068Z,9.00
2019-04-05T16:47:49.516Z,9.00
2019-04-05T16:50:21.096Z,9.00
2019-04-05T16:52:48.214Z,9.00
2019-04-05T16:55:16.690Z,9.00
2019-04-05T16:57:45.112Z,9.00
2019-04-05T17:00:14.071Z,8.90
2019-04-05T17:02:42.489Z,8.80
2019-04-05T17:05:11.613Z,8.70
2019-04-05T17:07:40.998Z,8.50
2019-04-05T17:10:09.747Z,8.40
2019-04-05T17:12:38.164Z,8.40
2019-04-05T17:15:07.720Z,8.30
2019-04-05T17:17:36.175Z,8.10
2019-04-05T17:20:06.038Z,8.00
2019-04-05T17:22:34.459Z,7.80
2019-04-05T17:25:03.338Z,7.50
2019-04-05T17:27:31.767Z,7.30
2019-04-05T17:30:00.197Z,7.20
2019-04-05T17:32:28.633Z,7.00
2019-04-05T17:34:57.058Z,6.90
2019-04-05T17:37:26.818Z,6.80
2019-04-05T17:39:55.424Z,6.70
2019-04-05T17:42:23.840Z,6.60
2019-04-05T17:44:52.264Z,6.50
2019-04-05T17:47:20.770Z,6.40
2019-04-05T17:49:49.200Z,6.30
2019-04-05T17:52:17.691Z,6.20
2019-04-05T17:54:46.094Z,6.10
2019-04-05T17:57:14.656Z,5.90
2019-04-05T17:59:43.427Z,5.80
2019-04-05T18:02:11.854Z,5.70
2019-04-05T18:04:40.337Z,5.60
2019-04-05T18:07:08.880Z,5.60
2019-04-05T18:09:37.618Z,5.50
2019-04-05T18:12:06.050Z,5.40
2019-04-05T18:14:34.452Z,5.30
2019-04-05T18:17:02.877Z,5.10
2019-04-05T18:19:31.317Z,5.20
2019-04-05T18:22:00.238Z,5.10
2019-04-05T18:24:28.650Z,5.00
2019-04-05T18:26:57.074Z,4.90
2019-04-05T18:29:25.572Z,4.80
2019-04-05T18:31:53.978Z,4.70
2019-04-05T18:34:22.508Z,4.70
2019-04-05T18:36:50.932Z,4.60
2019-04-05T18:39:19.350Z,4.60
2019-04-05T18:41:47.760Z,4.40
2019-04-05T18:44:16.263Z,4.40
2019-04-05T18:46:44.700Z,4.40
2019-04-05T18:49:13.136Z,4.20
2019-04-05T18:51:41.544Z,4.20
2019-04-05T18:54:09.963Z,4.10
2019-04-05T18:56:40.704Z,4.00
2019-04-05T18:59:09.117Z,4.00
2019-04-05T19:01:37.569Z,3.90
2019-04-05T19:04:05.983Z,3.90
2019-04-05T19:06:34.403Z,3.80
2019-04-05T19:09:04.488Z,3.80
2019-04-05T19:11:32.896Z,3.70
2019-04-05T19:14:02.890Z,3.70
2019-04-05T19:16:31.386Z,3.60
2019-04-05T19:18:59.807Z,3.50
2019-04-05T19:21:28.332Z,3.50
2019-04-05T19:23:56.771Z,3.40
2019-04-05T19:26:25.205Z,3.40
2019-04-05T19:28:53.634Z,3.30
2019-04-05T19:48:53.313Z,3.10
2019-04-05T19:51:21.741Z,3.10
2019-04-05T19:54:00.672Z,3.00
2019-04-05T19:56:20.349Z,3.00
2019-04-05T19:58:48.764Z,3.00
2019-04-05T20:01:17.187Z,2.90
2019-04-05T20:03:45.633Z,2.90
2019-04-05T20:06:14.140Z,2.80
2019-04-05T20:08:42.562Z,2.80
2019-04-05T20:11:11.000Z,2.80
2019-04-05T20:13:39.425Z,2.70
2019-04-05T20:16:07.934Z,2.70
2019-04-05T20:18:36.369Z,2.70
2019-04-05T20:21:04.875Z,2.70
2019-04-05T20:23:33.306Z,2.70
2019-04-05T20:26:01.724Z,2.70
2019-04-05T20:28:30.147Z,2.70
2019-04-05T20:30:58.571Z,2.60
2019-04-05T20:33:27.043Z,2.60
2019-04-05T20:35:55.482Z,2.60
2019-04-05T20:38:23.939Z,2.60
2019-04-05T20:40:52.341Z,2.70
2019-04-05T20:43:20.739Z,2.60
2019-04-05T20:45:49.168Z,2.60
2019-04-05T20:48:17.584Z,2.60
2019-04-05T20:50:46.004Z,2.60
2019-04-05T20:53:14.426Z,2.50
2019-04-05T20:55:42.844Z,2.50
2019-04-05T20:58:11.279Z,2.50
2019-04-05T21:00:39.705Z,2.50
2019-04-05T21:03:08.131Z,2.60
2019-04-05T21:05:36.645Z,2.60
2019-04-05T21:08:05.142Z,2.60
2019-04-05T21:10:33.632Z,2.50
2019-04-05T21:13:02.084Z,2.50
2019-04-05T21:15:30.488Z,2.50
2019-04-05T21:17:58.939Z,2.60
2019-04-05T21:20:27.414Z,2.50
2019-04-05T21:22:55.836Z,2.50
2019-04-05T21:25:24.269Z,2.50
2019-04-05T21:27:52.692Z,2.50
2019-04-05T21:30:21.188Z,2.40
2019-04-05T21:32:49.643Z,2.40
2019-04-05T21:35:18.061Z,2.40
2019-04-05T21:37:46.470Z,2.40
2019-04-05T21:40:14.979Z,2.40
2019-04-05T21:42:43.407Z,2.30
2019-04-05T21:45:11.991Z,2.30
2019-04-05T21:47:40.413Z,2.30
2019-04-05T21:50:10.599Z,2.30
2019-04-05T21:52:39.000Z,2.30
2019-04-05T21:55:08.416Z,2.40
2019-04-05T21:57:36.837Z,2.30
2019-04-05T22:00:08.415Z,2.40
2019-04-05T22:02:36.926Z,2.40
2019-04-05T22:05:07.077Z,2.30
2019-04-05T22:07:35.490Z,2.30
2019-04-05T22:10:06.158Z,2.30
2019-04-05T22:12:34.577Z,2.30
2019-04-05T22:15:03.010Z,2.30
2019-04-05T22:17:31.892Z,2.20
2019-04-05T22:20:00.319Z,2.20
2019-04-05T22:22:28.808Z,2.20
2019-04-05T22:24:59.467Z,2.20
2019-04-05T22:27:27.436Z,2.20
2019-04-05T22:29:55.844Z,2.20
2019-04-05T22:32:24.267Z,2.20
2019-04-05T22:34:52.681Z,2.20
2019-04-05T22:37:21.995Z,2.20
2019-04-05T22:39:50.434Z,2.20
2019-04-05T22:42:18.845Z,2.20
2019-04-05T22:44:47.270Z,2.20
2019-04-05T22:47:15.690Z,2.20
2019-04-05T22:49:44.121Z,2.20
2019-04-05T22:52:12.531Z,2.20
2019-04-05T22:54:42.701Z,2.20
2019-04-05T22:57:11.215Z,2.20
2019-04-05T22:59:39.640Z,2.20
2019-04-05T23:02:08.125Z,2.10
2019-04-05T23:04:36.582Z,2.10
2019-04-05T23:07:04.996Z,2.10
2019-04-05T23:09:33.426Z,2.00
2019-04-05T23:12:01.825Z,2.00
2019-04-05T23:14:30.258Z,2.00
2019-04-05T23:16:58.681Z,2.00
2019-04-05T23:19:27.161Z,1.90
2019-04-05T23:21:55.584Z,1.90
2019-04-05T23:24:24.026Z,1.90
2019-04-05T23:26:52.693Z,2.00
2019-04-05T23:29:21.105Z,1.90
2019-04-05T23:31:49.683Z,1.90
2019-04-05T23:34:18.106Z,1.90
2019-04-05T23:36:46.552Z,1.90
2019-04-05T23:39:15.024Z,1.90
2019-04-05T23:41:43.481Z,1.90
2019-04-05T23:44:11.891Z,1.90
2019-04-05T23:46:40.315Z,1.90
2019-04-05T23:49:08.785Z,1.90
2019-04-05T23:51:37.238Z,1.80
2019-04-05T23:54:05.655Z,1.80
2019-04-05T23:56:34.073Z,1.90
2019-04-05T23:59:02.551Z,1.80
